createdAt,value
2022-08-05T00:08:32.881Z,98647.15
2022-08-05T00:18:38.397Z,98640.39
2022-08-05T00:28:45.925Z,98641.42
2022-08-05T00:38:53.564Z,98632.64
2022-08-05T00:49:01.048Z,98626.86
2022-08-05T00:59:08.889Z,98623.50
2022-08-05T01:09:19.848Z,98621.36
2022-08-05T01:19:46.215Z,98609.85
2022-08-05T01:29:56.096Z,98597.96
2022-08-05T01:40:05.188Z,98586.37
2022-08-05T01:50:17.368Z,98582.65
2022-08-05T02:00:30.389Z,98574.92
2022-08-05T02:10:39.483Z,98572.13
2022-08-05T02:20:44.997Z,98562.74
2022-08-05T02:30:54.670Z,98561.94
2022-08-05T02:41:14.639Z,98550.20
2022-08-05T02:51:28.516Z,98544.83
2022-08-05T03:01:58.380Z,98538.95
2022-08-05T03:12:05.456Z,98534.41
2022-08-05T03:22:16.773Z,98529.71
2022-08-05T03:32:30.947Z,98524.65
2022-08-05T03:42:41.526Z,98520.08
2022-08-05T03:55:50.981Z,98523.43
2022-08-05T04:03:28.947Z,98523.79
2022-08-05T04:13:50.233Z,98513.57
2022-08-05T04:24:06.723Z,98510.67
2022-08-05T04:34:31.383Z,98508.85
2022-08-05T04:44:40.430Z,98504.48
2022-08-05T04:54:49.416Z,98495.51
2022-08-05T05:05:01.908Z,98490.83
2022-08-05T05:15:11.281Z,98499.94
2022-08-05T05:25:18.952Z,98506.37
2022-08-05T05:35:26.331Z,98511.63
2022-08-05T05:45:33.630Z,98510.09
2022-08-05T05:55:51.092Z,98509.15
2022-08-05T06:06:06.226Z,98509.86
2022-08-05T06:16:29.542Z,98506.48
2022-08-05T06:26:39.086Z,98505.06
2022-08-05T06:36:57.187Z,98509.00
2022-08-05T06:47:05.414Z,98506.39
2022-08-05T06:58:03.933Z,98504.77
2022-08-05T07:07:49.062Z,98503.00
2022-08-05T07:18:07.291Z,98503.71
2022-08-05T07:28:17.425Z,98501.13
2022-08-05T07:38:32.284Z,98499.40
2022-08-05T07:49:04.225Z,98502.42
2022-08-05T07:59:11.001Z,98490.52
2022-08-05T08:09:19.826Z,98481.64
2022-08-05T08:20:21.204Z,98483.38
2022-08-05T08:30:05.171Z,98488.64
2022-08-05T08:40:22.491Z,98493.57
2022-08-05T08:51:21.941Z,98498.05
2022-08-05T09:00:57.874Z,98498.95
2022-08-05T09:11:06.105Z,98494.13
2022-08-05T09:21:20.785Z,98483.30
2022-08-05T09:32:42.018Z,98473.02
2022-08-05T09:42:24.557Z,98465.19
2022-08-05T09:52:44.987Z,98460.10
2022-08-05T10:02:53.832Z,98458.65
2022-08-05T10:13:02.820Z,98454.59
2022-08-05T10:23:34.299Z,98444.25
2022-08-05T10:33:52.246Z,98442.99
2022-08-05T10:44:02.872Z,98437.75
2022-08-05T10:54:28.258Z,98431.77
2022-08-05T11:04:46.403Z,98423.58
2022-08-05T11:15:19.363Z,98425.92
2022-08-05T11:26:04.616Z,98427.90
2022-08-05T11:36:07.913Z,98421.49
2022-08-05T11:46:32.381Z,98418.02
2022-08-05T11:56:44.977Z,98419.18
2022-08-05T12:07:00.885Z,98417.60
2022-08-05T12:17:57.802Z,98414.42
2022-08-05T12:27:53.329Z,98406.40
2022-08-05T12:38:02.266Z,98403.23
2022-08-05T12:48:27.066Z,98389.70
2022-08-05T12:58:53.850Z,98380.73
2022-08-05T13:09:08.552Z,98380.33
2022-08-05T13:19:16.295Z,98372.39
2022-08-05T13:29:37.669Z,98364.48
2022-08-05T13:40:16.421Z,98365.02
2022-08-05T13:50:16.513Z,98357.20
2022-08-05T14:00:26.861Z,98349.95
2022-08-05T14:10:37.425Z,98345.89
2022-08-05T14:20:47.225Z,98347.34
2022-08-05T14:30:55.785Z,98336.89
2022-08-05T14:41:06.466Z,98330.33
2022-08-05T14:51:16.047Z,98325.30
2022-08-05T15:01:48.114Z,98318.61
2022-08-05T15:11:52.425Z,98318.21
2022-08-05T15:22:01.506Z,98309.42
2022-08-05T15:32:08.453Z,98306.13
2022-08-05T15:42:54.567Z,98299.11
2022-08-05T15:52:53.518Z,98289.71
2022-08-05T16:03:02.289Z,98295.69
2022-08-05T16:13:08.527Z,98291.98
2022-08-05T16:23:15.704Z,98294.23
2022-08-05T16:33:22.047Z,98293.17
2022-08-05T16:43:30.491Z,98286.88
2022-08-05T16:54:04.737Z,98278.77
2022-08-05T17:04:06.442Z,98279.16
2022-08-05T17:14:13.651Z,98282.30
2022-08-05T17:24:45.408Z,98285.80
2022-08-05T17:34:53.791Z,98287.91
2022-08-05T17:45:18.106Z,98285.98
2022-08-05T17:55:37.122Z,98286.30
2022-08-05T18:05:48.936Z,98291.29
2022-08-05T18:16:00.934Z,98298.88
2022-08-05T18:26:09.768Z,98313.14
2022-08-05T18:36:19.072Z,98318.52
2022-08-05T18:46:28.978Z,98321.61
2022-08-05T18:56:36.942Z,98331.44
2022-08-05T19:06:45.716Z,98337.73
2022-08-05T19:16:53.493Z,98336.14
2022-08-05T19:27:00.671Z,98331.30
2022-08-05T19:37:11.922Z,98338.33
2022-08-05T19:47:19.136Z,98338.70
2022-08-05T19:57:47.462Z,98338.52
2022-08-05T20:07:58.914Z,98337.66
2022-08-05T20:18:10.601Z,98345.98
2022-08-05T20:28:35.346Z,98343.84
2022-08-05T20:38:54.007Z,98341.19
2022-08-05T20:49:06.230Z,98342.92
2022-08-05T20:59:26.518Z,98346.55
2022-08-05T21:09:34.901Z,98346.87
2022-08-05T21:19:46.864Z,98346.22
2022-08-05T21:29:55.827Z,98352.56
2022-08-05T21:40:05.724Z,98351.41
2022-08-05T21:50:12.721Z,98357.88
2022-08-05T22:00:20.201Z,98356.39
2022-08-05T22:10:28.390Z,98353.15
2022-08-05T22:20:34.857Z,98353.25
2022-08-05T22:30:56.719Z,98350.59
2022-08-05T22:41:09.865Z,98356.29
2022-08-05T22:51:22.634Z,98359.84
2022-08-05T23:02:03.964Z,98363.06
2022-08-05T23:11:56.499Z,98359.13
2022-08-05T23:22:03.878Z,98360.19
2022-08-05T23:32:12.441Z,98390.83
2022-08-05T23:42:29.597Z,98389.92
2022-08-05T23:52:49.796Z,98387.56
